createdAt,value
2018-09-04T00:01:13.590Z,18.23
2018-09-04T00:03:49.593Z,18.20
2018-09-04T00:06:25.593Z,18.16
2018-09-04T00:09:01.564Z,18.14
2018-09-04T00:11:37.450Z,18.15
2018-09-04T00:14:13.233Z,18.20
2018-09-04T00:16:49.171Z,18.22
2018-09-04T00:19:24.980Z,18.17
2018-09-04T00:22:00.996Z,18.19
2018-09-04T00:24:36.804Z,18.16
2018-09-04T00:27:12.718Z,18.13
2018-09-04T00:29:48.449Z,18.10
2018-09-04T00:32:24.407Z,18.06
2018-09-04T00:35:00.256Z,17.99
2018-09-04T00:37:36.107Z,17.91
2018-09-04T00:40:11.969Z,17.88
2018-09-04T00:42:47.940Z,17.89
2018-09-04T00:45:23.868Z,17.92
2018-09-04T00:47:59.842Z,17.99
2018-09-04T00:50:35.633Z,18.03
2018-09-04T00:53:11.658Z,17.98
2018-09-04T00:55:47.497Z,17.97
2018-09-04T00:58:23.374Z,17.97
2018-09-04T01:00:59.415Z,17.93
2018-09-04T01:03:35.567Z,17.93
2018-09-04T01:06:11.578Z,17.92
2018-09-04T01:08:47.375Z,17.89
2018-09-04T01:11:23.300Z,17.84
2018-09-04T01:13:59.367Z,17.78
2018-09-04T01:16:35.542Z,17.75
2018-09-04T01:19:11.439Z,17.72
2018-09-04T01:21:47.308Z,17.71
2018-09-04T01:24:23.339Z,17.69
2018-09-04T01:26:59.211Z,17.66
2018-09-04T01:29:35.204Z,17.64
2018-09-04T01:32:11.366Z,17.65
2018-09-04T01:34:47.216Z,17.70
2018-09-04T01:37:23.293Z,17.71
2018-09-04T01:39:59.149Z,17.68
2018-09-04T01:42:34.947Z,17.66
2018-09-04T01:45:10.882Z,17.63
2018-09-04T01:47:46.872Z,17.59
2018-09-04T01:50:22.886Z,17.64
2018-09-04T01:52:58.837Z,17.63
2018-09-04T01:55:34.885Z,17.68
2018-09-04T01:58:10.780Z,17.63
2018-09-04T02:00:46.626Z,17.64
2018-09-04T02:03:22.605Z,17.70
2018-09-04T02:05:58.507Z,17.82
2018-09-04T02:08:34.456Z,17.84
2018-09-04T02:11:10.456Z,17.96
2018-09-04T02:13:46.405Z,17.88
2018-09-04T02:16:22.429Z,17.84
2018-09-04T02:18:58.318Z,17.81
2018-09-04T02:21:34.196Z,17.78
2018-09-04T02:24:40.661Z,17.75
2018-09-04T02:27:16.583Z,17.75
2018-09-04T02:29:52.571Z,17.71
2018-09-04T02:32:28.430Z,17.71
2018-09-04T02:35:04.380Z,17.72
2018-09-04T02:37:40.372Z,17.72
2018-09-04T02:40:16.344Z,17.74
2018-09-04T02:42:52.220Z,17.75
2018-09-04T02:45:28.024Z,17.77
2018-09-04T02:48:03.824Z,17.77
2018-09-04T02:50:39.539Z,17.79
2018-09-04T02:53:15.539Z,17.83
2018-09-04T02:55:51.465Z,17.83
2018-09-04T02:58:27.451Z,17.81
2018-09-04T03:01:03.264Z,17.79
2018-09-04T03:03:39.162Z,17.76
2018-09-04T03:06:15.131Z,17.77
2018-09-04T03:08:51.049Z,17.80
2018-09-04T03:11:26.970Z,17.81
2018-09-04T03:14:03.056Z,17.85
2018-09-04T03:16:39.072Z,17.88
2018-09-04T03:19:15.059Z,17.84
2018-09-04T03:21:50.910Z,17.83
2018-09-04T03:24:26.709Z,17.83
2018-09-04T03:27:02.492Z,17.83
2018-09-04T03:29:38.329Z,17.84
2018-09-04T03:32:14.235Z,17.86
2018-09-04T03:34:50.195Z,17.86
2018-09-04T03:37:26.106Z,17.86
2018-09-04T03:40:01.872Z,17.83
2018-09-04T03:42:37.860Z,17.82
2018-09-04T03:45:13.711Z,17.79
2018-09-04T03:47:49.528Z,17.77
2018-09-04T03:50:25.517Z,17.78
2018-09-04T03:53:01.377Z,17.77
2018-09-04T03:55:37.339Z,17.72
2018-09-04T03:58:13.407Z,17.74
2018-09-04T04:00:49.334Z,17.69
2018-09-04T04:03:25.338Z,17.68
2018-09-04T04:06:01.153Z,17.62
2018-09-04T04:08:37.065Z,17.57
2018-09-04T04:11:12.887Z,17.54
2018-09-04T04:13:48.871Z,17.50
2018-09-04T04:16:24.736Z,17.51
2018-09-04T04:19:00.692Z,17.50
2018-09-04T04:21:36.387Z,17.46
2018-09-04T04:24:12.140Z,17.46
2018-09-04T04:26:48.011Z,17.44
2018-09-04T04:29:24.139Z,17.43
2018-09-04T04:31:59.944Z,17.42
2018-09-04T04:34:35.953Z,17.39
2018-09-04T04:37:11.813Z,17.33
2018-09-04T04:39:47.546Z,17.32
2018-09-04T04:42:23.541Z,17.30
2018-09-04T04:44:59.535Z,17.23
2018-09-04T04:47:40.463Z,17.22
2018-09-04T04:50:16.752Z,17.24
2018-09-04T04:52:52.683Z,17.28
2018-09-04T04:55:28.531Z,17.35
2018-09-04T04:58:04.485Z,17.35
2018-09-04T05:00:40.428Z,17.36
2018-09-04T05:03:16.395Z,17.35
2018-09-04T05:05:52.361Z,17.31
2018-09-04T05:08:28.346Z,17.32
2018-09-04T05:11:04.414Z,17.30
2018-09-04T05:13:40.216Z,17.32
2018-09-04T05:16:16.250Z,17.31
2018-09-04T05:18:52.200Z,17.32
2018-09-04T05:21:28.180Z,17.33
2018-09-04T05:24:04.188Z,17.33
2018-09-04T05:26:40.181Z,17.35
2018-09-04T05:29:15.986Z,17.40
2018-09-04T05:32:03.096Z,17.47
2018-09-04T05:34:38.980Z,17.52
2018-09-04T05:37:14.910Z,17.55
2018-09-04T05:39:50.915Z,17.53
2018-09-04T05:42:30.663Z,17.55
2018-09-04T05:45:07.864Z,17.61
2018-09-04T05:47:43.845Z,17.66
2018-09-04T05:50:19.852Z,17.68
2018-09-04T05:52:55.659Z,17.71
2018-09-04T05:55:31.483Z,17.74
2018-09-04T05:58:07.574Z,17.80
2018-09-04T06:00:48.173Z,17.81
2018-09-04T06:03:24.146Z,17.83
2018-09-04T06:05:59.905Z,17.81
2018-09-04T06:08:35.792Z,17.79
2018-09-04T06:11:11.696Z,17.79
2018-09-04T06:13:47.623Z,17.84
2018-09-04T06:16:23.531Z,17.91
2018-09-04T06:18:59.343Z,17.94
2018-09-04T06:21:35.331Z,18.02
2018-09-04T06:24:11.238Z,18.15
2018-09-04T06:26:47.096Z,18.26
2018-09-04T06:29:23.182Z,18.38
2018-09-04T06:31:59.179Z,18.51
2018-09-04T06:34:35.041Z,18.72
2018-09-04T06:37:11.004Z,18.92
2018-09-04T06:39:47.167Z,19.14
2018-09-04T06:42:23.176Z,19.35
2018-09-04T06:44:59.230Z,19.60
2018-09-04T06:47:35.164Z,19.84
2018-09-04T06:50:11.039Z,20.00
2018-09-04T06:52:46.912Z,20.15
2018-09-04T06:55:22.829Z,20.35
2018-09-04T06:57:58.736Z,20.58
2018-09-04T07:00:34.509Z,20.81
2018-09-04T07:03:10.497Z,20.99
2018-09-04T07:05:46.503Z,21.28
2018-09-04T07:08:22.399Z,21.55
2018-09-04T07:10:58.348Z,21.81
2018-09-04T07:13:34.177Z,21.98
2018-09-04T07:16:10.191Z,22.11
2018-09-04T07:18:46.156Z,22.24
2018-09-04T07:21:22.070Z,22.37
2018-09-04T07:23:57.898Z,22.54
2018-09-04T07:26:33.797Z,22.76
2018-09-04T07:29:09.953Z,22.90
2018-09-04T07:31:45.975Z,22.96
2018-09-04T07:34:21.987Z,23.22
2018-09-04T07:36:58.011Z,23.51
2018-09-04T07:39:34.037Z,23.69
2018-09-04T07:42:10.032Z,23.99
2018-09-04T07:44:46.109Z,24.18
2018-09-04T07:47:22.099Z,24.42
2018-09-04T07:49:58.064Z,24.68
2018-09-04T07:52:33.980Z,24.89
2018-09-04T07:55:10.283Z,24.72
2018-09-04T07:57:46.380Z,24.50
2018-09-04T08:00:22.363Z,24.24
2018-09-04T08:02:58.332Z,24.01
2018-09-04T08:05:34.180Z,23.83
2018-09-04T08:08:10.153Z,23.60
2018-09-04T08:10:46.184Z,23.46
2018-09-04T08:13:22.132Z,23.33
2018-09-04T08:15:58.185Z,23.25
2018-09-04T08:18:34.162Z,23.24
2018-09-04T08:21:10.209Z,23.33
2018-09-04T08:23:46.231Z,23.67
2018-09-04T08:26:22.095Z,23.68
2018-09-04T08:28:57.916Z,23.73
2018-09-04T08:31:33.957Z,23.82
2018-09-04T08:34:09.896Z,24.00
2018-09-04T08:36:45.769Z,24.00
2018-09-04T08:39:21.855Z,23.90
2018-09-04T08:41:57.867Z,23.85
2018-09-04T08:44:33.700Z,23.84
2018-09-04T08:47:09.782Z,23.79
2018-09-04T08:49:45.821Z,23.76
2018-09-04T08:52:21.759Z,23.76
2018-09-04T08:54:57.753Z,23.73
2018-09-04T08:57:33.858Z,23.74
2018-09-04T09:00:09.790Z,23.74
2018-09-04T09:02:45.835Z,23.76
2018-09-04T09:05:21.736Z,23.75
2018-09-04T09:07:58.527Z,23.74
2018-09-04T09:10:34.649Z,23.80
2018-09-04T09:13:10.633Z,23.85
2018-09-04T09:15:46.464Z,23.95
2018-09-04T09:18:22.536Z,24.08
2018-09-04T09:20:58.477Z,24.20
2018-09-04T09:23:34.432Z,24.30
2018-09-04T09:26:10.428Z,24.42
2018-09-04T09:28:46.372Z,24.55
2018-09-04T09:31:22.228Z,24.69
2018-09-04T09:33:58.052Z,24.77
2018-09-04T09:36:34.289Z,24.99
2018-09-04T09:39:11.241Z,25.19
2018-09-04T09:41:47.331Z,25.43
2018-09-04T09:44:23.415Z,25.65
2018-09-04T09:47:03.217Z,25.81
2018-09-04T09:49:39.171Z,25.98
2018-09-04T09:52:15.115Z,26.30
2018-09-04T09:54:51.161Z,26.62
2018-09-04T09:57:27.302Z,26.86
2018-09-04T10:00:03.529Z,26.96
2018-09-04T10:02:44.654Z,26.80
2018-09-04T10:05:20.611Z,26.58
2018-09-04T10:07:56.766Z,26.40
2018-09-04T10:10:32.667Z,26.22
2018-09-04T10:13:08.566Z,26.15
2018-09-04T10:15:44.489Z,26.16
2018-09-04T10:18:20.311Z,26.10
2018-09-04T10:20:56.157Z,26.17
2018-09-04T10:23:32.649Z,26.29
2018-09-04T10:26:08.701Z,26.32
2018-09-04T10:28:44.492Z,26.47
2018-09-04T10:31:20.542Z,26.61
2018-09-04T10:33:56.309Z,26.65
2018-09-04T10:36:32.341Z,26.68
2018-09-04T10:39:14.143Z,26.75
2018-09-04T10:41:50.302Z,27.03
2018-09-04T10:44:30.568Z,27.24
2018-09-04T10:47:06.603Z,27.38
2018-09-04T10:49:42.691Z,27.63
2018-09-04T10:52:18.643Z,27.95
2018-09-04T10:54:54.388Z,28.30
2018-09-04T10:57:30.528Z,28.62
2018-09-04T11:00:07.297Z,29.05
2018-09-04T11:02:43.217Z,29.34
2018-09-04T11:05:19.432Z,29.65
2018-09-04T11:07:55.472Z,30.18
2018-09-04T11:10:31.500Z,30.71
2018-09-04T11:13:08.136Z,31.20
2018-09-04T11:15:44.103Z,31.60
2018-09-04T11:18:20.549Z,31.96
2018-09-04T11:20:56.369Z,32.17
2018-09-04T11:23:32.453Z,32.37
2018-09-04T11:26:14.525Z,32.55
2018-09-04T11:28:54.972Z,32.89
2018-09-04T11:31:30.766Z,33.32
2018-09-04T11:34:06.897Z,33.72
2018-09-04T11:36:42.810Z,33.60
2018-09-04T11:39:18.652Z,33.43
2018-09-04T11:41:54.530Z,33.63
2018-09-04T11:44:30.530Z,34.04
2018-09-04T11:47:06.537Z,34.42
2018-09-04T11:49:43.163Z,34.65
2018-09-04T11:52:19.158Z,34.80
2018-09-04T11:54:55.309Z,34.89
2018-09-04T11:57:31.123Z,35.02
2018-09-04T12:00:09.580Z,35.08
2018-09-04T12:02:46.100Z,35.09
2018-09-04T12:05:21.996Z,35.20
2018-09-04T12:07:57.880Z,35.39
2018-09-04T12:10:33.866Z,35.45
2018-09-04T12:13:09.888Z,35.49
2018-09-04T12:15:45.713Z,35.57
2018-09-04T12:18:21.568Z,35.57
2018-09-04T12:20:59.152Z,35.23
2018-09-04T12:23:34.960Z,35.23
2018-09-04T12:26:11.825Z,35.38
2018-09-04T12:28:47.669Z,35.40
2018-09-04T12:31:23.622Z,35.58
2018-09-04T12:33:59.668Z,35.69
2018-09-04T12:36:35.770Z,35.67
2018-09-04T12:39:11.625Z,35.59
2018-09-04T12:41:50.417Z,35.31
2018-09-04T12:44:26.378Z,35.38
2018-09-04T12:47:02.373Z,35.42
2018-09-04T12:49:38.403Z,35.38
2018-09-04T12:52:14.234Z,35.41
2018-09-04T12:54:50.261Z,35.40
2018-09-04T12:57:26.129Z,35.39
2018-09-04T13:00:02.113Z,35.67
2018-09-04T13:02:38.100Z,35.67
2018-09-04T13:05:13.952Z,35.30
2018-09-04T13:07:49.757Z,35.36
2018-09-04T13:10:25.593Z,35.56
2018-09-04T13:13:01.533Z,35.75
2018-09-04T13:15:37.957Z,35.78
2018-09-04T13:18:13.762Z,35.57
2018-09-04T13:20:49.893Z,35.34
2018-09-04T13:23:25.768Z,35.10
2018-09-04T13:26:01.929Z,34.80
2018-09-04T13:28:37.936Z,34.48
2018-09-04T13:31:13.892Z,34.29
2018-09-04T13:33:49.782Z,34.23
2018-09-04T13:36:25.923Z,34.24
2018-09-04T13:39:01.913Z,34.48
2018-09-04T13:41:37.889Z,34.72
2018-09-04T13:44:13.987Z,34.62
2018-09-04T13:46:49.835Z,34.66
2018-09-04T13:49:25.746Z,34.55
2018-09-04T13:52:01.778Z,34.57
2018-09-04T13:54:37.606Z,34.72
2018-09-04T13:57:13.379Z,34.99
2018-09-04T13:59:49.357Z,34.99
2018-09-04T14:02:25.305Z,35.13
2018-09-04T14:05:01.189Z,35.33
2018-09-04T14:07:37.157Z,35.45
2018-09-04T14:10:13.166Z,35.59
2018-09-04T14:12:49.077Z,35.67
2018-09-04T14:15:25.294Z,35.71
2018-09-04T14:18:01.433Z,35.62
2018-09-04T14:20:37.518Z,35.76
2018-09-04T14:23:13.502Z,35.71
2018-09-04T14:25:49.512Z,35.41
2018-09-04T14:28:41.384Z,35.01
2018-09-04T14:31:01.667Z,34.78
2018-09-04T14:33:37.681Z,34.46
2018-09-04T14:36:13.653Z,34.01
2018-09-04T14:38:49.485Z,33.72
2018-09-04T14:41:25.606Z,33.53
2018-09-04T14:44:01.301Z,33.40
2018-09-04T14:46:37.284Z,32.94
2018-09-04T14:49:13.341Z,32.63
2018-09-04T14:51:49.262Z,32.42
2018-09-04T14:54:25.163Z,32.30
2018-09-04T14:57:01.206Z,32.25
2018-09-04T14:59:37.198Z,32.08
2018-09-04T15:02:12.992Z,32.05
2018-09-04T15:05:30.338Z,31.91
2018-09-04T15:08:06.322Z,31.69
2018-09-04T15:10:42.246Z,31.42
2018-09-04T15:13:17.937Z,31.10
2018-09-04T15:15:53.988Z,30.79
2018-09-04T15:18:29.866Z,30.52
2018-09-04T15:21:05.906Z,30.24
2018-09-04T15:23:41.964Z,30.07
2018-09-04T15:26:17.922Z,29.89
2018-09-04T15:28:53.766Z,29.62
2018-09-04T15:31:29.822Z,29.49
2018-09-04T15:34:05.833Z,29.41
2018-09-04T15:36:41.621Z,29.33
2018-09-04T15:39:17.645Z,29.32
2018-09-04T15:41:53.573Z,29.17
2018-09-04T15:44:29.561Z,29.05
2018-09-04T15:47:05.557Z,28.94
2018-09-04T15:49:45.750Z,28.83
2018-09-04T15:52:21.801Z,28.69
2018-09-04T15:54:57.544Z,28.52
2018-09-04T15:57:33.297Z,28.32
2018-09-04T16:00:09.463Z,28.32
2018-09-04T16:02:45.474Z,28.08
2018-09-04T16:05:21.320Z,28.07
2018-09-04T16:07:57.314Z,27.89
2018-09-04T16:10:33.370Z,27.71
2018-09-04T16:13:09.402Z,27.51
2018-09-04T16:15:45.332Z,27.13
2018-09-04T16:18:21.464Z,26.89
2018-09-04T16:20:57.533Z,26.41
2018-09-04T16:23:33.533Z,26.18
2018-09-04T16:26:09.472Z,25.91
2018-09-04T16:28:45.448Z,25.84
2018-09-04T16:31:21.465Z,25.72
2018-09-04T16:33:57.173Z,25.57
2018-09-04T16:36:33.210Z,25.55
2018-09-04T16:39:09.010Z,25.59
2018-09-04T16:41:45.028Z,25.75
2018-09-04T16:44:20.795Z,25.53
2018-09-04T16:46:56.674Z,25.40
2018-09-04T16:49:32.565Z,25.35
2018-09-04T16:52:08.497Z,25.43
2018-09-04T16:54:44.431Z,25.44
2018-09-04T16:57:20.335Z,25.26
2018-09-04T16:59:56.317Z,25.17
2018-09-04T17:02:32.493Z,25.11
2018-09-04T17:05:08.344Z,25.08
2018-09-04T17:07:44.484Z,25.08
2018-09-04T17:10:20.254Z,25.04
2018-09-04T17:12:56.306Z,25.03
2018-09-04T17:15:32.168Z,25.01
2018-09-04T17:18:08.198Z,25.04
2018-09-04T17:20:44.120Z,24.97
2018-09-04T17:23:19.893Z,24.94
2018-09-04T17:25:55.877Z,24.92
2018-09-04T17:28:31.928Z,24.87
2018-09-04T17:31:07.842Z,24.84
2018-09-04T17:33:43.732Z,24.81
2018-09-04T17:36:19.798Z,24.76
2018-09-04T17:38:55.793Z,24.73
2018-09-04T17:41:31.818Z,24.65
2018-09-04T17:44:07.900Z,24.56
2018-09-04T17:46:43.817Z,24.51
2018-09-04T17:49:19.674Z,24.46
2018-09-04T17:51:55.617Z,24.42
2018-09-04T17:54:31.421Z,24.36
2018-09-04T17:57:07.586Z,24.29
2018-09-04T17:59:43.562Z,24.24
2018-09-04T18:02:19.561Z,24.17
2018-09-04T18:04:55.535Z,24.09
2018-09-04T18:07:31.508Z,24.02
2018-09-04T18:10:07.667Z,23.95
2018-09-04T18:12:43.602Z,23.90
2018-09-04T18:15:19.446Z,23.84
2018-09-04T18:17:55.355Z,23.77
2018-09-04T18:20:31.365Z,23.72
2018-09-04T18:23:07.221Z,23.68
2018-09-04T18:25:43.107Z,23.59
2018-09-04T18:28:19.154Z,23.54
2018-09-04T18:30:55.077Z,23.44
2018-09-04T18:33:31.017Z,23.40
2018-09-04T18:36:07.025Z,23.35
2018-09-04T18:38:42.847Z,23.28
2018-09-04T18:41:18.685Z,23.23
2018-09-04T18:43:54.534Z,23.16
2018-09-04T18:46:30.551Z,23.11
2018-09-04T18:49:06.601Z,23.05
2018-09-04T18:51:42.714Z,23.02
2018-09-04T18:54:18.745Z,22.98
2018-09-04T18:56:54.537Z,22.90
2018-09-04T18:59:30.378Z,22.88
2018-09-04T19:02:06.604Z,22.88
2018-09-04T19:04:42.576Z,22.85
2018-09-04T19:07:18.596Z,22.79
2018-09-04T19:09:54.470Z,22.76
2018-09-04T19:12:30.366Z,22.70
2018-09-04T19:15:06.548Z,22.62
2018-09-04T19:17:42.427Z,22.58
2018-09-04T19:20:18.540Z,22.52
2018-09-04T19:25:36.899Z,22.42
2018-09-04T19:28:43.516Z,22.38
2018-09-04T19:31:20.110Z,22.35
2018-09-04T19:33:56.383Z,22.23
2018-09-04T19:36:32.388Z,22.21
2018-09-04T19:39:10.020Z,22.13
2018-09-04T19:41:46.013Z,22.01
2018-09-04T19:44:21.840Z,21.88
2018-09-04T19:46:57.770Z,21.85
2018-09-04T19:49:33.850Z,21.86
2018-09-04T19:52:09.940Z,21.86
2018-09-04T19:54:45.964Z,21.86
2018-09-04T19:57:22.081Z,21.86
2018-09-04T19:59:58.201Z,21.87
2018-09-04T20:02:33.968Z,21.84
2018-09-04T20:05:10.433Z,21.78
2018-09-04T20:07:46.327Z,21.71
2018-09-04T20:10:22.309Z,21.66
2018-09-04T20:12:58.232Z,21.59
2018-09-04T20:15:34.046Z,21.55
2018-09-04T20:18:09.933Z,21.50
2018-09-04T20:20:45.987Z,21.46
2018-09-04T20:23:21.902Z,21.35
2018-09-04T20:25:57.877Z,21.26
2018-09-04T20:28:33.841Z,21.24
2018-09-04T20:31:12.712Z,21.26
2018-09-04T20:33:48.996Z,21.32
2018-09-04T20:36:24.713Z,21.33
2018-09-04T20:39:00.603Z,21.28
2018-09-04T20:41:36.677Z,21.29
2018-09-04T20:44:12.669Z,21.28
2018-09-04T20:46:48.497Z,21.27
2018-09-04T20:49:24.385Z,21.26
2018-09-04T20:52:00.479Z,21.21
2018-09-04T20:54:36.351Z,21.21
2018-09-04T20:57:30.045Z,21.25
2018-09-04T21:00:25.534Z,21.29
2018-09-04T21:03:18.285Z,21.32
2018-09-04T21:06:10.881Z,21.34
2018-09-04T21:09:58.503Z,21.34
2018-09-04T21:12:34.360Z,21.32
2018-09-04T21:15:10.270Z,21.26
2018-09-04T21:17:46.143Z,21.21
2018-09-04T21:20:25.616Z,21.16
2018-09-04T21:23:01.594Z,21.13
2018-09-04T21:25:37.458Z,21.09
2018-09-04T21:28:13.381Z,21.01
2018-09-04T21:30:49.300Z,20.97
2018-09-04T21:33:25.156Z,20.94
2018-09-04T21:36:00.961Z,20.92
2018-09-04T21:38:36.934Z,20.93
2018-09-04T21:41:12.971Z,20.93
2018-09-04T21:43:49.097Z,20.91
2018-09-04T21:46:24.914Z,20.89
2018-09-04T21:49:00.752Z,20.90
2018-09-04T21:51:36.604Z,20.90
2018-09-04T21:54:12.482Z,20.90
2018-09-04T21:56:48.317Z,20.87
2018-09-04T21:59:24.344Z,20.86
2018-09-04T22:02:00.298Z,20.85
2018-09-04T22:04:36.292Z,20.82
2018-09-04T22:07:13.054Z,20.81
2018-09-04T22:09:49.055Z,20.82
2018-09-04T22:12:25.139Z,20.80
2018-09-04T22:15:00.941Z,20.79
2018-09-04T22:17:37.913Z,20.78
2018-09-04T22:20:13.876Z,20.79
2018-09-04T22:22:49.737Z,20.77
2018-09-04T22:25:25.740Z,20.75
2018-09-04T22:28:01.544Z,20.75
2018-09-04T22:30:37.459Z,20.76
2018-09-04T22:33:13.456Z,20.75
2018-09-04T22:35:49.462Z,20.70
2018-09-04T22:38:25.269Z,20.68
2018-09-04T22:41:01.290Z,20.66
2018-09-04T22:43:37.790Z,20.65
2018-09-04T22:46:13.735Z,20.65
2018-09-04T22:48:49.537Z,20.68
2018-09-04T22:51:30.644Z,20.67
2018-09-04T22:54:07.883Z,20.69
2018-09-04T22:56:43.975Z,20.64
2018-09-04T22:59:20.051Z,20.63
2018-09-04T23:01:55.938Z,20.56
2018-09-04T23:04:31.869Z,20.48
2018-09-04T23:07:07.893Z,20.44
2018-09-04T23:09:44.117Z,20.39
2018-09-04T23:12:20.116Z,20.31
2018-09-04T23:14:56.157Z,20.26
2018-09-04T23:17:32.181Z,20.21
2018-09-04T23:20:08.280Z,20.17
2018-09-04T23:22:44.284Z,20.16
2018-09-04T23:25:20.221Z,20.15
2018-09-04T23:27:56.117Z,20.23
2018-09-04T23:30:32.031Z,20.12
2018-09-04T23:33:08.462Z,20.03
2018-09-04T23:35:44.418Z,19.97
2018-09-04T23:38:22.714Z,19.92
2018-09-04T23:40:58.626Z,19.88
2018-09-04T23:43:34.617Z,19.83
2018-09-04T23:46:10.528Z,19.77
2018-09-04T23:48:46.511Z,19.77
2018-09-04T23:51:22.444Z,19.75
2018-09-04T23:53:58.553Z,19.71
2018-09-04T23:56:34.732Z,19.67
2018-09-04T23:59:10.669Z,19.66
